Terminal Aerodrome Forecast
Issued by NWS Albany, NY

Home | Current Version | Previous Version | Text Only | Print | Product List | Glossary On
Versions: 1 2 3 4 5 6 7 8 9 10 11 12 13 14 15 16
000
FTUS41 KALY 222113 AAA
TAFPOU
TAF AMD
KPOU 222113Z 2221/2318 15008KT P6SM VCSH BKN015 OVC025
      TEMPO 2221/2223 2SM -RA BR BKN015 OVC020
     FM222300 14004KT 5SM BR OVC015
     FM230400 00000KT 2SM BR OVC005
     FM230900 VRB03KT 4SM BR SCT200
     FM231200 02003KT P6SM BKN250=

USA.gov is the U.S. government's official web portal to all federal, state and local government web resources and services.